Terminal Aerodrome Forecast
Issued by NWS

Home | Current Version | Previous Version | Text Only | Print | Product List | Glossary On
Versions: 1 2 3 4 5 6 7 8 9 10 11 12 13 14 15 16 17 18 19 20 21 22 23
478
FTUS43 KDTX 101140
TAFMBS
TAF
KMBS 101140Z 1012/1112 32013G20KT 6SM -SHSN BKN035
      TEMPO 1012/1014 2SM -SN OVC025
     FM102200 28013KT P6SM SCT035 BKN045
     FM110200 26010KT P6SM SCT045=

USA.gov is the U.S. government's official web portal to all federal, state and local government web resources and services.